Loon Lake, Canada
Current Conditions -  °F | °C
As of 7:00 AM on Monday 20 Oct 2014 (Local Time) from CYOD Reporting Station
Scattered Clouds Scattered Clouds  
Wind Chill: 39°   Ceiling: Unl
Heat Index: 43°   Visibility: 15mi
Dew Point: 37°   Wind: 6mph
Humidity: 81%   Direction: 130°SE
Pressure: 29.59"   Gusts: NA
Location:  54.03°N, 109.16°W
Report Text: CYOD 201300Z 13005KT 15SM SCT240 06/03 A2959 RMK CI1 SLP031
Loading
Personal Weather Stations






























Interactive Weather Map
Tropical Storm Tracking
New forecast layout! Learn more

10-Day Weather Forecast

Advertisements
Track Severe Weather on mobile